Al Ghariya — C6WF5 — position and weather

sailwx.info

Track history (hours):
 
Tides and Currents Weather Stations Pressure Air Temp Water Temp Dewpoint Dewpoint Depression Visibility Wind Speed Wind Dir Waves Ship Positions

Al Ghariya

Last reported at 2018-Mar-30 12:57 UTC. Time now 2018-Apr-26 23:10 UTC.
Position N 16°07' E 055°21'.
Warning: this ship's position is 27 days out of date.

Length 315 m; draft 9.8 m.

Type: Ship (hazmat cat D). MMSI: 308248000.

Date/timePositionNaut miles runAvg speedWind from/ knotsBaromVisibWave heightAir tempDewpointWater temp
2018-Mar-30 12:57N 16°07' E 055°21'  
2018-Mar-22 08:20N 36°17' E 014°52'515.4
2018-Mar-22 08:00N 36°18' E 014°46'1019.1
2018-Mar-22 07:30N 36°21' E 014°35'1019.9
2018-Mar-22 07:00N 36°24' E 014°23'1019.5
2018-Mar-22 06:30N 36°28' E 014°12'917.7
2018-Mar-22 06:00N 36°30' E 014°02'1220.5
2018-Mar-22 05:27N 36°34' E 013°48'612.3
2018-Mar-22 04:58N 36°35' E 013°41'  
Track history (hours):
 
Tides and Currents Weather Stations Pressure Air Temp Water Temp Dewpoint Dewpoint Depression Visibility Wind Speed Wind Dir Waves Ship Positions

Al Ghariya

Last reported at 2018-Mar-30 12:57 UTC. Time now 2018-Apr-26 23:10 UTC.
Position N 16°07' E 055°21'.
Warning: this ship's position is 27 days out of date.

Length 315 m; draft 9.8 m.

Type: Ship (hazmat cat D). MMSI: 308248000.

Date/timePositionNaut miles runAvg speedWind from/ knotsBaromVisibWave heightAir tempDewpointWater temp
2018-Mar-30 12:57N 16°07' E 055°21'  
2018-Mar-22 08:20N 36°17' E 014°52'515.4
2018-Mar-22 08:00N 36°18' E 014°46'1019.1
2018-Mar-22 07:30N 36°21' E 014°35'1019.9
2018-Mar-22 07:00N 36°24' E 014°23'1019.5
2018-Mar-22 06:30N 36°28' E 014°12'917.7
2018-Mar-22 06:00N 36°30' E 014°02'1220.5
2018-Mar-22 05:27N 36°34' E 013°48'612.3
2018-Mar-22 04:58N 36°35' E 013°41'  

Dump ship's entire track history